Aeroporto :
LOGIN :

Iscrizione | Disclaimer

   EN    FR    IT 

 










Sommario :    VFR   VFR Marginale   IFR   IFR Intensivo   IFR Molto Intensivo
Visibilità : 
Base nubi : 
>= 8 km
>= 3000ft
5 / 8 km
1000 / 3000 ft
1500m / 5 km
500 / 1000 ft
800 / 1500m
200 / 500 ft
< 800m
< 200 ft
Simboli :   Temporali  Nebbia  Neve Forte  Precipitazioni Forti  Vento > 20 kt
SIGMETs :   Varie  Temporali  Ghiacco  Turbolenza  Onda orograficha  Ceneri Vulcaniche






- Altitudine del aeroporto : 659 ft
- Codice IATA : LGG


EBLG - Liège

ULTIMO METAR :
  • 220420Z 17010KT 9999 SCT021 07/04 Q1004 NOSIG

METARs OBSOLETI :
  • 220350Z 15009G23KT 130V190 9999 FEW046 07/04 Q1004 NOSIG
  • 220320Z 15007KT 9999 SCT046 06/04 Q1004 NOSIG
  • 220250Z 15008KT 9999 FEW046 06/04 Q1004 NOSIG
  • 220220Z 16011KT 9999 FEW046 07/04 Q1004 NOSIG
  • 220150Z 16008G20KT 140V250 9999 SCT046 06/04 Q1004 NOSIG

TAF TAF EBLG
Valido dal 22 a 00 ore il 23 a 06 ore UTC


212303Z 2200/2306 16008KT 9999 SCT020 SCT040
TEMPO 2205/2210 BKN008



MetMap, La meteo Aeronautica in un colpo d'occhio ! - Copyright ORBIFLY Dicembre 2007 - Disclaimer

ORBIFLY MET'MAP TEAM :

Programmazione e sviluppo : Alexandra Zaïnal
Concezione e sviluppo : Baudouin d'Aumeries
Co-Programmazione e sviluppo : Marc-Olivier Méhu
Supporto tecnico e logistico : Manuel Goepfert
Aiuto per la traduzione : Arnaldo La Scala

Contatto : metmap@orbifly.com




FONTI E CREDITI :

   NOAA